sensor_id;sensor_type;location;lat;lon;timestamp;temperature;humidity
54938;DHT22;52756;52.826;6.214;2023-12-29T00:01:59;10.60;87.20
54938;DHT22;52756;52.826;6.214;2023-12-29T00:04:25;10.70;87.20
54938;DHT22;52756;52.826;6.214;2023-12-29T00:06:55;11.00;87.40
54938;DHT22;52756;52.826;6.214;2023-12-29T00:09:21;10.60;87.10
54938;DHT22;52756;52.826;6.214;2023-12-29T00:11:53;10.60;87.10
54938;DHT22;52756;52.826;6.214;2023-12-29T00:14:19;10.80;87.30
54938;DHT22;52756;52.826;6.214;2023-12-29T00:16:45;10.80;87.40
54938;DHT22;52756;52.826;6.214;2023-12-29T00:19:12;10.60;87.30
54938;DHT22;52756;52.826;6.214;2023-12-29T00:21:38;10.60;87.40
54938;DHT22;52756;52.826;6.214;2023-12-29T00:24:04;10.60;87.80
54938;DHT22;52756;52.826;6.214;2023-12-29T00:26:30;10.60;87.80
54938;DHT22;52756;52.826;6.214;2023-12-29T00:28:56;10.50;87.90
54938;DHT22;52756;52.826;6.214;2023-12-29T00:31:21;10.50;88.00
54938;DHT22;52756;52.826;6.214;2023-12-29T00:33:47;10.50;88.20
54938;DHT22;52756;52.826;6.214;2023-12-29T00:36:16;10.60;88.30
54938;DHT22;52756;52.826;6.214;2023-12-29T00:38:42;10.50;88.40
54938;DHT22;52756;52.826;6.214;2023-12-29T00:41:08;10.50;88.50
54938;DHT22;52756;52.826;6.214;2023-12-29T00:43:34;10.80;88.80
54938;DHT22;52756;52.826;6.214;2023-12-29T00:46:04;10.50;88.60
54938;DHT22;52756;52.826;6.214;2023-12-29T00:48:33;10.60;88.90
54938;DHT22;52756;52.826;6.214;2023-12-29T00:51:01;10.50;88.90
54938;DHT22;52756;52.826;6.214;2023-12-29T00:53:28;10.50;88.90
54938;DHT22;52756;52.826;6.214;2023-12-29T00:55:54;10.50;89.00
54938;DHT22;52756;52.826;6.214;2023-12-29T00:58:20;10.40;89.00
54938;DHT22;52756;52.826;6.214;2023-12-29T01:00:46;10.40;89.00
54938;DHT22;52756;52.826;6.214;2023-12-29T01:03:11;10.40;89.00
54938;DHT22;52756;52.826;6.214;2023-12-29T01:05:37;11.00;89.50
54938;DHT22;52756;52.826;6.214;2023-12-29T01:08:02;10.40;89.10
54938;DHT22;52756;52.826;6.214;2023-12-29T01:10:28;10.40;89.20
54938;DHT22;52756;52.826;6.214;2023-12-29T01:12:54;10.40;89.20
54938;DHT22;52756;52.826;6.214;2023-12-29T01:15:19;10.40;89.40
54938;DHT22;52756;52.826;6.214;2023-12-29T01:17:45;10.60;89.60
54938;DHT22;52756;52.826;6.214;2023-12-29T01:20:11;10.40;89.70
54938;DHT22;52756;52.826;6.214;2023-12-29T01:22:36;10.40;89.80
54938;DHT22;52756;52.826;6.214;2023-12-29T01:25:02;10.40;89.90
54938;DHT22;52756;52.826;6.214;2023-12-29T01:27:29;10.40;90.00
54938;DHT22;52756;52.826;6.214;2023-12-29T01:29:55;10.40;90.00
54938;DHT22;52756;52.826;6.214;2023-12-29T01:32:21;10.40;90.00
54938;DHT22;52756;52.826;6.214;2023-12-29T01:34:47;10.40;90.10
54938;DHT22;52756;52.826;6.214;2023-12-29T01:37:13;10.40;90.10
54938;DHT22;52756;52.826;6.214;2023-12-29T01:39:38;10.50;90.10
54938;DHT22;52756;52.826;6.214;2023-12-29T01:42:05;10.70;90.20
54938;DHT22;52756;52.826;6.214;2023-12-29T01:44:31;10.30;90.20
54938;DHT22;52756;52.826;6.214;2023-12-29T01:46:59;10.90;90.40
54938;DHT22;52756;52.826;6.214;2023-12-29T01:49:27;10.30;90.30
54938;DHT22;52756;52.826;6.214;2023-12-29T01:51:55;10.30;90.30
54938;DHT22;52756;52.826;6.214;2023-12-29T01:54:24;10.50;90.40
54938;DHT22;52756;52.826;6.214;2023-12-29T01:56:50;10.30;90.40
54938;DHT22;52756;52.826;6.214;2023-12-29T01:59:17;10.90;90.50
54938;DHT22;52756;52.826;6.214;2023-12-29T02:01:46;10.30;90.50
54938;DHT22;52756;52.826;6.214;2023-12-29T02:04:12;10.40;90.50
54938;DHT22;52756;52.826;6.214;2023-12-29T02:06:39;10.30;90.50
54938;DHT22;52756;52.826;6.214;2023-12-29T02:09:05;10.60;90.60
54938;DHT22;52756;52.826;6.214;2023-12-29T02:11:31;10.30;90.50
54938;DHT22;52756;52.826;6.214;2023-12-29T02:13:58;10.30;90.50
54938;DHT22;52756;52.826;6.214;2023-12-29T02:19:08;10.30;90.60
54938;DHT22;52756;52.826;6.214;2023-12-29T02:21:39;10.90;90.60
54938;DHT22;52756;52.826;6.214;2023-12-29T02:24:04;10.40;90.40
54938;DHT22;52756;52.826;6.214;2023-12-29T02:26:32;10.40;90.40
54938;DHT22;52756;52.826;6.214;2023-12-29T02:29:04;10.90;90.50
54938;DHT22;52756;52.826;6.214;2023-12-29T02:31:32;10.40;90.50
54938;DHT22;52756;52.826;6.214;2023-12-29T02:34:03;10.50;90.70
54938;DHT22;52756;52.826;6.214;2023-12-29T02:36:32;10.40;90.50
54938;DHT22;52756;52.826;6.214;2023-12-29T02:38:58;10.30;90.50
54938;DHT22;52756;52.826;6.214;2023-12-29T02:41:24;10.40;90.50
54938;DHT22;52756;52.826;6.214;2023-12-29T02:43:50;10.40;90.50
54938;DHT22;52756;52.826;6.214;2023-12-29T02:46:17;10.50;90.50
54938;DHT22;52756;52.826;6.214;2023-12-29T02:48:43;10.40;90.50
54938;DHT22;52756;52.826;6.214;2023-12-29T02:51:08;10.80;90.60
54938;DHT22;52756;52.826;6.214;2023-12-29T02:53:35;10.40;90.40
54938;DHT22;52756;52.826;6.214;2023-12-29T02:56:01;10.40;90.30
54938;DHT22;52756;52.826;6.214;2023-12-29T02:58:26;10.40;90.30
54938;DHT22;52756;52.826;6.214;2023-12-29T03:00:52;10.30;90.20
54938;DHT22;52756;52.826;6.214;2023-12-29T03:03:17;10.30;90.20
54938;DHT22;52756;52.826;6.214;2023-12-29T03:05:43;10.40;90.20
54938;DHT22;52756;52.826;6.214;2023-12-29T03:08:09;10.30;90.10
54938;DHT22;52756;52.826;6.214;2023-12-29T03:10:34;10.90;90.30
54938;DHT22;52756;52.826;6.214;2023-12-29T03:13:00;10.30;90.20
54938;DHT22;52756;52.826;6.214;2023-12-29T03:15:25;10.30;90.20
54938;DHT22;52756;52.826;6.214;2023-12-29T03:17:51;10.30;90.20
54938;DHT22;52756;52.826;6.214;2023-12-29T03:20:16;10.30;90.20
54938;DHT22;52756;52.826;6.214;2023-12-29T03:22:42;10.30;90.20
54938;DHT22;52756;52.826;6.214;2023-12-29T03:25:08;10.30;90.20
54938;DHT22;52756;52.826;6.214;2023-12-29T03:27:35;10.30;90.20
54938;DHT22;52756;52.826;6.214;2023-12-29T03:30:00;10.30;90.20
54938;DHT22;52756;52.826;6.214;2023-12-29T03:32:26;10.30;90.20
54938;DHT22;52756;52.826;6.214;2023-12-29T03:34:51;10.30;90.20
54938;DHT22;52756;52.826;6.214;2023-12-29T03:37:17;10.30;90.20
54938;DHT22;52756;52.826;6.214;2023-12-29T03:39:43;10.30;90.20
54938;DHT22;52756;52.826;6.214;2023-12-29T03:42:09;10.30;90.20
54938;DHT22;52756;52.826;6.214;2023-12-29T03:44:34;10.30;90.10
54938;DHT22;52756;52.826;6.214;2023-12-29T03:47:00;10.30;90.10
54938;DHT22;52756;52.826;6.214;2023-12-29T03:49:29;10.30;90.10
54938;DHT22;52756;52.826;6.214;2023-12-29T03:51:56;10.20;90.00
54938;DHT22;52756;52.826;6.214;2023-12-29T03:54:22;10.20;90.00
54938;DHT22;52756;52.826;6.214;2023-12-29T03:56:48;10.20;89.90
54938;DHT22;52756;52.826;6.214;2023-12-29T03:59:13;10.30;89.90
54938;DHT22;52756;52.826;6.214;2023-12-29T04:01:39;10.80;90.00
54938;DHT22;52756;52.826;6.214;2023-12-29T04:04:04;10.30;89.80
54938;DHT22;52756;52.826;6.214;2023-12-29T04:06:30;10.20;89.70
54938;DHT22;52756;52.826;6.214;2023-12-29T04:08:57;10.20;89.70
54938;DHT22;52756;52.826;6.214;2023-12-29T04:11:22;10.70;90.00
54938;DHT22;52756;52.826;6.214;2023-12-29T04:13:48;10.20;89.80
54938;DHT22;52756;52.826;6.214;2023-12-29T04:16:14;10.20;89.80
54938;DHT22;52756;52.826;6.214;2023-12-29T04:18:40;10.20;89.80
54938;DHT22;52756;52.826;6.214;2023-12-29T04:21:06;10.20;89.90
54938;DHT22;52756;52.826;6.214;2023-12-29T04:23:34;10.20;89.90
54938;DHT22;52756;52.826;6.214;2023-12-29T04:25:59;10.30;90.00
54938;DHT22;52756;52.826;6.214;2023-12-29T04:28:25;10.10;89.90
54938;DHT22;52756;52.826;6.214;2023-12-29T04:30:51;10.10;89.80
54938;DHT22;52756;52.826;6.214;2023-12-29T04:33:16;10.10;89.70
54938;DHT22;52756;52.826;6.214;2023-12-29T04:35:43;10.10;89.70
54938;DHT22;52756;52.826;6.214;2023-12-29T04:38:09;10.10;89.60
54938;DHT22;52756;52.826;6.214;2023-12-29T04:40:34;10.20;89.30
54938;DHT22;52756;52.826;6.214;2023-12-29T04:43:03;10.10;89.00
54938;DHT22;52756;52.826;6.214;2023-12-29T04:45:29;10.10;88.70
54938;DHT22;52756;52.826;6.214;2023-12-29T04:47:55;10.10;88.30
54938;DHT22;52756;52.826;6.214;2023-12-29T04:50:20;10.30;88.20
54938;DHT22;52756;52.826;6.214;2023-12-29T04:52:46;10.10;87.70
54938;DHT22;52756;52.826;6.214;2023-12-29T04:55:12;10.10;87.40
54938;DHT22;52756;52.826;6.214;2023-12-29T04:57:38;10.10;87.10
54938;DHT22;52756;52.826;6.214;2023-12-29T05:00:04;10.10;86.60
54938;DHT22;52756;52.826;6.214;2023-12-29T05:02:30;10.10;86.00
54938;DHT22;52756;52.826;6.214;2023-12-29T05:04:55;10.10;85.70
54938;DHT22;52756;52.826;6.214;2023-12-29T05:07:21;10.10;85.00
54938;DHT22;52756;52.826;6.214;2023-12-29T05:09:46;10.10;84.60
54938;DHT22;52756;52.826;6.214;2023-12-29T05:12:12;10.10;84.40
54938;DHT22;52756;52.826;6.214;2023-12-29T05:14:37;10.10;84.00
54938;DHT22;52756;52.826;6.214;2023-12-29T05:17:03;10.10;83.90
54938;DHT22;52756;52.826;6.214;2023-12-29T05:19:28;10.00;83.70
54938;DHT22;52756;52.826;6.214;2023-12-29T05:21:54;10.10;83.50
54938;DHT22;52756;52.826;6.214;2023-12-29T05:24:20;10.10;83.20
54938;DHT22;52756;52.826;6.214;2023-12-29T05:26:46;10.10;83.00
54938;DHT22;52756;52.826;6.214;2023-12-29T05:29:11;10.10;82.90
54938;DHT22;52756;52.826;6.214;2023-12-29T05:31:37;10.50;83.00
54938;DHT22;52756;52.826;6.214;2023-12-29T05:34:02;10.10;82.60
54938;DHT22;52756;52.826;6.214;2023-12-29T05:36:28;10.20;82.60
54938;DHT22;52756;52.826;6.214;2023-12-29T05:38:55;10.10;82.40
54938;DHT22;52756;52.826;6.214;2023-12-29T05:41:21;10.00;82.40
54938;DHT22;52756;52.826;6.214;2023-12-29T05:43:47;10.10;82.60
54938;DHT22;52756;52.826;6.214;2023-12-29T05:46:12;10.10;82.40
54938;DHT22;52756;52.826;6.214;2023-12-29T05:48:41;10.10;82.50
54938;DHT22;52756;52.826;6.214;2023-12-29T05:51:12;10.10;82.60
54938;DHT22;52756;52.826;6.214;2023-12-29T05:53:41;10.10;82.70
54938;DHT22;52756;52.826;6.214;2023-12-29T05:56:07;10.10;82.70
54938;DHT22;52756;52.826;6.214;2023-12-29T05:58:33;10.10;83.00
54938;DHT22;52756;52.826;6.214;2023-12-29T06:01:00;10.10;83.30
54938;DHT22;52756;52.826;6.214;2023-12-29T06:03:26;10.10;83.60
54938;DHT22;52756;52.826;6.214;2023-12-29T06:05:52;10.10;83.90
54938;DHT22;52756;52.826;6.214;2023-12-29T06:08:17;10.10;84.20
54938;DHT22;52756;52.826;6.214;2023-12-29T06:10:43;10.10;84.40
54938;DHT22;52756;52.826;6.214;2023-12-29T06:13:09;10.00;84.50
54938;DHT22;52756;52.826;6.214;2023-12-29T06:15:34;10.00;84.80
54938;DHT22;52756;52.826;6.214;2023-12-29T06:18:02;10.00;85.10
54938;DHT22;52756;52.826;6.214;2023-12-29T06:20:27;10.00;85.40
54938;DHT22;52756;52.826;6.214;2023-12-29T06:22:53;10.00;85.70
54938;DHT22;52756;52.826;6.214;2023-12-29T06:25:19;10.00;86.00
54938;DHT22;52756;52.826;6.214;2023-12-29T06:27:45;10.00;86.20
54938;DHT22;52756;52.826;6.214;2023-12-29T06:30:11;10.00;86.30
54938;DHT22;52756;52.826;6.214;2023-12-29T06:32:36;10.00;86.50
54938;DHT22;52756;52.826;6.214;2023-12-29T06:35:03;10.00;86.70
54938;DHT22;52756;52.826;6.214;2023-12-29T06:37:29;10.00;86.80
54938;DHT22;52756;52.826;6.214;2023-12-29T06:39:54;10.00;86.90
54938;DHT22;52756;52.826;6.214;2023-12-29T06:42:20;10.00;87.00
54938;DHT22;52756;52.826;6.214;2023-12-29T06:44:46;10.10;87.20
54938;DHT22;52756;52.826;6.214;2023-12-29T06:47:12;10.00;87.20
54938;DHT22;52756;52.826;6.214;2023-12-29T06:49:38;10.00;87.20
54938;DHT22;52756;52.826;6.214;2023-12-29T06:52:04;10.10;87.40
54938;DHT22;52756;52.826;6.214;2023-12-29T06:54:30;10.10;87.50
54938;DHT22;52756;52.826;6.214;2023-12-29T06:56:56;10.10;87.50
54938;DHT22;52756;52.826;6.214;2023-12-29T06:59:22;10.10;87.50
54938;DHT22;52756;52.826;6.214;2023-12-29T07:01:48;10.10;87.60
54938;DHT22;52756;52.826;6.214;2023-12-29T07:04:14;10.10;87.60
54938;DHT22;52756;52.826;6.214;2023-12-29T07:06:41;10.10;87.60
54938;DHT22;52756;52.826;6.214;2023-12-29T07:09:07;10.10;87.70
54938;DHT22;52756;52.826;6.214;2023-12-29T07:11:34;10.10;87.80
54938;DHT22;52756;52.826;6.214;2023-12-29T07:14:02;10.10;87.80
54938;DHT22;52756;52.826;6.214;2023-12-29T07:16:28;10.10;87.90
54938;DHT22;52756;52.826;6.214;2023-12-29T07:18:53;10.10;88.10
54938;DHT22;52756;52.826;6.214;2023-12-29T07:21:19;10.10;88.40
54938;DHT22;52756;52.826;6.214;2023-12-29T07:23:45;10.10;88.40
54938;DHT22;52756;52.826;6.214;2023-12-29T07:26:10;10.10;88.50
54938;DHT22;52756;52.826;6.214;2023-12-29T07:28:36;10.10;88.60
54938;DHT22;52756;52.826;6.214;2023-12-29T07:31:02;10.10;88.60
54938;DHT22;52756;52.826;6.214;2023-12-29T07:33:28;10.10;88.70
54938;DHT22;52756;52.826;6.214;2023-12-29T07:35:54;10.10;88.70
54938;DHT22;52756;52.826;6.214;2023-12-29T07:38:20;10.10;88.70
54938;DHT22;52756;52.826;6.214;2023-12-29T07:40:46;10.10;88.70
54938;DHT22;52756;52.826;6.214;2023-12-29T07:43:14;10.10;88.70
54938;DHT22;52756;52.826;6.214;2023-12-29T07:45:41;10.10;88.60
54938;DHT22;52756;52.826;6.214;2023-12-29T07:48:08;10.10;88.70
54938;DHT22;52756;52.826;6.214;2023-12-29T07:50:34;10.10;88.70
54938;DHT22;52756;52.826;6.214;2023-12-29T07:53:00;10.10;88.70
54938;DHT22;52756;52.826;6.214;2023-12-29T07:55:29;10.10;88.70
54938;DHT22;52756;52.826;6.214;2023-12-29T07:57:57;10.30;88.80
54938;DHT22;52756;52.826;6.214;2023-12-29T08:00:23;10.20;88.70
54938;DHT22;52756;52.826;6.214;2023-12-29T08:02:49;10.10;88.70
54938;DHT22;52756;52.826;6.214;2023-12-29T08:05:15;10.70;89.10
54938;DHT22;52756;52.826;6.214;2023-12-29T08:07:42;10.10;88.80
54938;DHT22;52756;52.826;6.214;2023-12-29T08:10:08;10.10;89.20
54938;DHT22;52756;52.826;6.214;2023-12-29T08:12:35;10.10;88.70
54938;DHT22;52756;52.826;6.214;2023-12-29T08:15:02;10.10;88.80
54938;DHT22;52756;52.826;6.214;2023-12-29T08:17:31;10.10;88.80
54938;DHT22;52756;52.826;6.214;2023-12-29T08:19:57;10.10;88.80
54938;DHT22;52756;52.826;6.214;2023-12-29T08:22:22;10.10;88.90
54938;DHT22;52756;52.826;6.214;2023-12-29T08:24:48;10.30;89.00
54938;DHT22;52756;52.826;6.214;2023-12-29T08:27:14;10.20;89.00
54938;DHT22;52756;52.826;6.214;2023-12-29T08:29:40;10.20;89.10
54938;DHT22;52756;52.826;6.214;2023-12-29T08:32:07;10.20;89.30
54938;DHT22;52756;52.826;6.214;2023-12-29T08:34:32;10.20;89.20
54938;DHT22;52756;52.826;6.214;2023-12-29T08:36:59;10.20;89.20
54938;DHT22;52756;52.826;6.214;2023-12-29T08:39:25;10.20;89.30
54938;DHT22;52756;52.826;6.214;2023-12-29T08:41:51;10.20;89.30
54938;DHT22;52756;52.826;6.214;2023-12-29T08:44:16;10.20;89.20
54938;DHT22;52756;52.826;6.214;2023-12-29T08:46:42;10.20;89.30
54938;DHT22;52756;52.826;6.214;2023-12-29T08:49:08;10.20;89.50
54938;DHT22;52756;52.826;6.214;2023-12-29T08:51:34;10.20;89.70
54938;DHT22;52756;52.826;6.214;2023-12-29T08:53:59;10.20;89.80
54938;DHT22;52756;52.826;6.214;2023-12-29T08:56:25;10.20;90.00
54938;DHT22;52756;52.826;6.214;2023-12-29T08:58:51;10.20;90.00
54938;DHT22;52756;52.826;6.214;2023-12-29T09:01:18;10.20;90.10
54938;DHT22;52756;52.826;6.214;2023-12-29T09:03:43;10.20;90.20
54938;DHT22;52756;52.826;6.214;2023-12-29T09:06:09;10.20;90.30
54938;DHT22;52756;52.826;6.214;2023-12-29T09:08:35;10.50;90.40
54938;DHT22;52756;52.826;6.214;2023-12-29T09:11:01;10.30;90.40
54938;DHT22;52756;52.826;6.214;2023-12-29T09:13:27;10.20;90.40
54938;DHT22;52756;52.826;6.214;2023-12-29T09:15:55;10.20;90.50
54938;DHT22;52756;52.826;6.214;2023-12-29T09:18:21;10.20;90.50
54938;DHT22;52756;52.826;6.214;2023-12-29T09:20:47;10.20;90.50
54938;DHT22;52756;52.826;6.214;2023-12-29T09:23:13;10.20;90.60
54938;DHT22;52756;52.826;6.214;2023-12-29T09:25:39;10.20;90.60
54938;DHT22;52756;52.826;6.214;2023-12-29T09:28:05;10.20;90.60
54938;DHT22;52756;52.826;6.214;2023-12-29T09:30:30;10.20;90.70
54938;DHT22;52756;52.826;6.214;2023-12-29T09:32:56;10.20;90.70
54938;DHT22;52756;52.826;6.214;2023-12-29T09:35:22;10.20;90.70
54938;DHT22;52756;52.826;6.214;2023-12-29T09:37:48;10.20;90.80
54938;DHT22;52756;52.826;6.214;2023-12-29T09:40:14;10.30;90.80
54938;DHT22;52756;52.826;6.214;2023-12-29T09:42:41;10.20;90.80
54938;DHT22;52756;52.826;6.214;2023-12-29T09:45:11;10.20;90.70
54938;DHT22;52756;52.826;6.214;2023-12-29T09:47:42;10.20;90.60
54938;DHT22;52756;52.826;6.214;2023-12-29T09:50:11;10.20;90.60
54938;DHT22;52756;52.826;6.214;2023-12-29T09:52:39;10.20;90.60
54938;DHT22;52756;52.826;6.214;2023-12-29T09:55:08;10.10;90.60
54938;DHT22;52756;52.826;6.214;2023-12-29T09:57:36;10.10;90.60
54938;DHT22;52756;52.826;6.214;2023-12-29T10:00:04;10.10;90.50
54938;DHT22;52756;52.826;6.214;2023-12-29T10:02:31;10.10;90.50
54938;DHT22;52756;52.826;6.214;2023-12-29T10:04:56;10.00;90.40
54938;DHT22;52756;52.826;6.214;2023-12-29T10:07:26;10.00;90.30
54938;DHT22;52756;52.826;6.214;2023-12-29T10:09:56;10.00;90.30
54938;DHT22;52756;52.826;6.214;2023-12-29T10:12:24;10.00;90.30
54938;DHT22;52756;52.826;6.214;2023-12-29T10:22:51;9.90;90.00
54938;DHT22;52756;52.826;6.214;2023-12-29T10:25:17;9.80;89.50
54938;DHT22;52756;52.826;6.214;2023-12-29T10:27:43;9.70;89.30
54938;DHT22;52756;52.826;6.214;2023-12-29T10:30:10;9.70;89.10
54938;DHT22;52756;52.826;6.214;2023-12-29T10:32:36;9.60;89.10
54938;DHT22;52756;52.826;6.214;2023-12-29T10:35:12;9.60;89.10
54938;DHT22;52756;52.826;6.214;2023-12-29T10:37:38;9.60;89.10
54938;DHT22;52756;52.826;6.214;2023-12-29T10:40:05;9.50;89.30
54938;DHT22;52756;52.826;6.214;2023-12-29T10:42:31;9.50;89.40
54938;DHT22;52756;52.826;6.214;2023-12-29T10:45:08;9.50;89.70
54938;DHT22;52756;52.826;6.214;2023-12-29T10:47:34;9.50;89.90
54938;DHT22;52756;52.826;6.214;2023-12-29T10:50:05;9.40;89.90
54938;DHT22;52756;52.826;6.214;2023-12-29T10:52:31;9.40;89.90
54938;DHT22;52756;52.826;6.214;2023-12-29T10:55:08;9.40;89.80
54938;DHT22;52756;52.826;6.214;2023-12-29T10:57:35;9.40;89.90
54938;DHT22;52756;52.826;6.214;2023-12-29T11:00:02;9.40;89.90
54938;DHT22;52756;52.826;6.214;2023-12-29T11:02:28;9.40;89.80
54938;DHT22;52756;52.826;6.214;2023-12-29T11:05:08;9.40;89.70
54938;DHT22;52756;52.826;6.214;2023-12-29T11:07:38;9.40;89.50
54938;DHT22;52756;52.826;6.214;2023-12-29T11:10:05;9.40;89.30
54938;DHT22;52756;52.826;6.214;2023-12-29T11:12:32;9.40;89.20
54938;DHT22;52756;52.826;6.214;2023-12-29T11:15:04;10.00;89.30
54938;DHT22;52756;52.826;6.214;2023-12-29T11:17:31;9.40;88.50
54938;DHT22;52756;52.826;6.214;2023-12-29T11:20:02;9.30;88.00
54938;DHT22;52756;52.826;6.214;2023-12-29T11:22:30;9.30;87.80
54938;DHT22;52756;52.826;6.214;2023-12-29T11:25:00;9.30;87.80
54938;DHT22;52756;52.826;6.214;2023-12-29T11:27:32;9.70;88.10
54938;DHT22;52756;52.826;6.214;2023-12-29T11:30:02;9.20;88.00
54938;DHT22;52756;52.826;6.214;2023-12-29T11:35:11;9.10;88.20
54938;DHT22;52756;52.826;6.214;2023-12-29T11:40:27;9.10;87.90
54938;DHT22;52756;52.826;6.214;2023-12-29T11:42:59;9.20;87.00
54938;DHT22;52756;52.826;6.214;2023-12-29T11:45:32;9.50;86.90
54938;DHT22;52756;52.826;6.214;2023-12-29T11:47:59;9.10;86.10
54938;DHT22;52756;52.826;6.214;2023-12-29T11:50:35;9.10;85.80
54938;DHT22;52756;52.826;6.214;2023-12-29T11:53:05;9.10;85.50
54938;DHT22;52756;52.826;6.214;2023-12-29T11:55:34;9.10;85.50
54938;DHT22;52756;52.826;6.214;2023-12-29T11:58:01;9.00;85.60
54938;DHT22;52756;52.826;6.214;2023-12-29T12:00:44;9.40;85.90
54938;DHT22;52756;52.826;6.214;2023-12-29T12:03:17;9.00;85.80
54938;DHT22;52756;52.826;6.214;2023-12-29T12:05:50;9.00;86.20
54938;DHT22;52756;52.826;6.214;2023-12-29T12:08:35;9.10;86.70
54938;DHT22;52756;52.826;6.214;2023-12-29T12:13:57;9.10;87.50
54938;DHT22;52756;52.826;6.214;2023-12-29T12:19:11;9.20;87.90
54938;DHT22;52756;52.826;6.214;2023-12-29T12:21:37;9.30;88.00
54938;DHT22;52756;52.826;6.214;2023-12-29T12:24:06;9.90;88.10
54938;DHT22;52756;52.826;6.214;2023-12-29T12:26:33;9.40;87.30
54938;DHT22;52756;52.826;6.214;2023-12-29T12:28:59;9.40;86.50
54938;DHT22;52756;52.826;6.214;2023-12-29T12:31:25;9.50;85.80
54938;DHT22;52756;52.826;6.214;2023-12-29T12:33:58;9.90;85.50
54938;DHT22;52756;52.826;6.214;2023-12-29T12:36:26;9.50;84.60
54938;DHT22;52756;52.826;6.214;2023-12-29T12:39:01;9.60;84.00
54938;DHT22;52756;52.826;6.214;2023-12-29T12:41:26;9.60;83.50
54938;DHT22;52756;52.826;6.214;2023-12-29T12:44:13;9.70;83.30
54938;DHT22;52756;52.826;6.214;2023-12-29T12:46:50;9.70;82.50
54938;DHT22;52756;52.826;6.214;2023-12-29T12:49:19;9.70;82.90
54938;DHT22;52756;52.826;6.214;2023-12-29T12:51:46;9.70;83.00
54938;DHT22;52756;52.826;6.214;2023-12-29T12:54:13;9.70;83.00
54938;DHT22;52756;52.826;6.214;2023-12-29T12:56:42;10.00;83.10
54938;DHT22;52756;52.826;6.214;2023-12-29T12:59:09;9.80;83.00
54938;DHT22;52756;52.826;6.214;2023-12-29T13:01:36;9.80;82.80
54938;DHT22;52756;52.826;6.214;2023-12-29T13:04:03;9.80;82.60
54938;DHT22;52756;52.826;6.214;2023-12-29T13:06:31;9.80;82.50
54938;DHT22;52756;52.826;6.214;2023-12-29T13:08:58;9.90;82.20
54938;DHT22;52756;52.826;6.214;2023-12-29T13:11:24;9.90;82.10
54938;DHT22;52756;52.826;6.214;2023-12-29T13:13:51;9.90;81.70
54938;DHT22;52756;52.826;6.214;2023-12-29T13:16:33;9.90;81.50
54938;DHT22;52756;52.826;6.214;2023-12-29T13:19:19;9.90;81.20
54938;DHT22;52756;52.826;6.214;2023-12-29T13:21:46;9.90;80.60
54938;DHT22;52756;52.826;6.214;2023-12-29T13:24:13;9.90;81.00
54938;DHT22;52756;52.826;6.214;2023-12-29T13:26:41;10.40;81.30
54938;DHT22;52756;52.826;6.214;2023-12-29T13:29:08;9.90;81.10
54938;DHT22;52756;52.826;6.214;2023-12-29T13:31:34;9.90;80.90
54938;DHT22;52756;52.826;6.214;2023-12-29T13:34:05;9.90;80.70
54938;DHT22;52756;52.826;6.214;2023-12-29T13:36:43;9.90;80.60
54938;DHT22;52756;52.826;6.214;2023-12-29T13:39:26;9.90;80.70
54938;DHT22;52756;52.826;6.214;2023-12-29T13:41:53;9.90;81.00
54938;DHT22;52756;52.826;6.214;2023-12-29T13:44:20;9.90;81.20
54938;DHT22;52756;52.826;6.214;2023-12-29T13:46:51;9.90;81.30
54938;DHT22;52756;52.826;6.214;2023-12-29T13:49:18;10.20;81.50
54938;DHT22;52756;52.826;6.214;2023-12-29T13:51:45;9.80;81.10
54938;DHT22;52756;52.826;6.214;2023-12-29T13:54:11;9.80;81.00
54938;DHT22;52756;52.826;6.214;2023-12-29T13:56:36;10.50;81.60
54938;DHT22;52756;52.826;6.214;2023-12-29T13:59:02;10.10;81.30
54938;DHT22;52756;52.826;6.214;2023-12-29T14:01:36;9.80;81.30
54938;DHT22;52756;52.826;6.214;2023-12-29T14:04:11;9.80;81.40
54938;DHT22;52756;52.826;6.214;2023-12-29T14:06:52;9.80;81.10
54938;DHT22;52756;52.826;6.214;2023-12-29T14:09:22;9.80;81.20
54938;DHT22;52756;52.826;6.214;2023-12-29T14:11:48;10.30;81.70
54938;DHT22;52756;52.826;6.214;2023-12-29T14:14:24;10.10;81.60
54938;DHT22;52756;52.826;6.214;2023-12-29T14:16:51;9.80;81.40
54938;DHT22;52756;52.826;6.214;2023-12-29T14:19:18;10.20;81.80
54938;DHT22;52756;52.826;6.214;2023-12-29T14:21:44;9.80;81.60
54938;DHT22;52756;52.826;6.214;2023-12-29T14:24:12;10.30;82.00
54938;DHT22;52756;52.826;6.214;2023-12-29T14:29:17;9.70;81.60
54938;DHT22;52756;52.826;6.214;2023-12-29T14:31:43;9.80;82.20
54938;DHT22;52756;52.826;6.214;2023-12-29T14:34:10;9.80;82.30
54938;DHT22;52756;52.826;6.214;2023-12-29T14:36:37;10.40;82.70
54938;DHT22;52756;52.826;6.214;2023-12-29T14:39:03;9.70;82.40
54938;DHT22;52756;52.826;6.214;2023-12-29T14:41:30;9.90;82.50
54938;DHT22;52756;52.826;6.214;2023-12-29T14:43:55;10.20;82.90
54938;DHT22;52756;52.826;6.214;2023-12-29T14:46:22;10.30;83.00
54938;DHT22;52756;52.826;6.214;2023-12-29T14:48:48;10.20;83.00
54938;DHT22;52756;52.826;6.214;2023-12-29T14:51:14;9.70;82.70
54938;DHT22;52756;52.826;6.214;2023-12-29T14:53:42;9.70;82.70
54938;DHT22;52756;52.826;6.214;2023-12-29T14:56:08;9.70;82.70
54938;DHT22;52756;52.826;6.214;2023-12-29T14:58:33;9.70;82.90
54938;DHT22;52756;52.826;6.214;2023-12-29T15:01:02;9.70;82.90
54938;DHT22;52756;52.826;6.214;2023-12-29T15:03:28;9.70;82.80
54938;DHT22;52756;52.826;6.214;2023-12-29T15:05:59;9.70;82.80
54938;DHT22;52756;52.826;6.214;2023-12-29T15:08:25;9.70;82.80
54938;DHT22;52756;52.826;6.214;2023-12-29T15:10:57;9.70;82.70
54938;DHT22;52756;52.826;6.214;2023-12-29T15:13:23;9.70;82.70
54938;DHT22;52756;52.826;6.214;2023-12-29T15:15:50;9.70;82.80
54938;DHT22;52756;52.826;6.214;2023-12-29T15:18:17;9.70;82.80
54938;DHT22;52756;52.826;6.214;2023-12-29T15:20:43;9.80;82.80
54938;DHT22;52756;52.826;6.214;2023-12-29T15:23:08;9.80;82.70
54938;DHT22;52756;52.826;6.214;2023-12-29T15:25:34;9.70;82.70
54938;DHT22;52756;52.826;6.214;2023-12-29T15:28:00;10.10;83.00
54938;DHT22;52756;52.826;6.214;2023-12-29T15:30:25;9.70;82.70
54938;DHT22;52756;52.826;6.214;2023-12-29T15:32:51;9.40;82.40
54938;DHT22;52756;52.826;6.214;2023-12-29T15:35:17;9.70;82.70
54938;DHT22;52756;52.826;6.214;2023-12-29T15:37:42;9.70;82.60
54938;DHT22;52756;52.826;6.214;2023-12-29T15:40:09;9.70;82.60
54938;DHT22;52756;52.826;6.214;2023-12-29T15:42:35;9.70;83.00
54938;DHT22;52756;52.826;6.214;2023-12-29T15:45:01;9.70;82.70
54938;DHT22;52756;52.826;6.214;2023-12-29T15:47:27;9.70;82.80
54938;DHT22;52756;52.826;6.214;2023-12-29T15:49:52;9.70;82.90
54938;DHT22;52756;52.826;6.214;2023-12-29T15:52:18;9.70;82.90
54938;DHT22;52756;52.826;6.214;2023-12-29T15:54:43;9.70;82.90
54938;DHT22;52756;52.826;6.214;2023-12-29T15:57:09;9.70;82.90
54938;DHT22;52756;52.826;6.214;2023-12-29T15:59:35;9.70;82.70